sensor_id;sensor_type;location;lat;lon;timestamp;P1;durP1;ratioP1;P2;durP2;ratioP2
11699;SDS011;5906;51.660;6.674;2024-01-06T00:02:15;24.87;;;16.80;;
11699;SDS011;5906;51.660;6.674;2024-01-06T00:04:42;26.10;;;17.13;;
11699;SDS011;5906;51.660;6.674;2024-01-06T00:07:09;23.27;;;17.03;;
11699;SDS011;5906;51.660;6.674;2024-01-06T00:09:36;23.60;;;16.53;;
11699;SDS011;5906;51.660;6.674;2024-01-06T00:12:04;23.93;;;17.17;;
11699;SDS011;5906;51.660;6.674;2024-01-06T00:14:31;27.20;;;17.47;;
11699;SDS011;5906;51.660;6.674;2024-01-06T00:16:58;27.00;;;17.00;;
11699;SDS011;5906;51.660;6.674;2024-01-06T00:19:26;25.20;;;16.57;;
11699;SDS011;5906;51.660;6.674;2024-01-06T00:21:53;26.50;;;17.00;;
11699;SDS011;5906;51.660;6.674;2024-01-06T00:24:20;22.97;;;15.33;;
11699;SDS011;5906;51.660;6.674;2024-01-06T00:26:47;25.37;;;15.90;;
11699;SDS011;5906;51.660;6.674;2024-01-06T00:29:15;25.43;;;15.97;;
11699;SDS011;5906;51.660;6.674;2024-01-06T00:31:42;27.00;;;17.50;;
11699;SDS011;5906;51.660;6.674;2024-01-06T00:34:10;31.80;;;18.97;;
11699;SDS011;5906;51.660;6.674;2024-01-06T00:36:37;32.13;;;18.43;;
11699;SDS011;5906;51.660;6.674;2024-01-06T00:39:04;26.83;;;17.67;;
11699;SDS011;5906;51.660;6.674;2024-01-06T00:41:31;30.83;;;19.60;;
11699;SDS011;5906;51.660;6.674;2024-01-06T00:44:01;25.43;;;17.80;;
11699;SDS011;5906;51.660;6.674;2024-01-06T00:46:29;28.80;;;18.90;;
11699;SDS011;5906;51.660;6.674;2024-01-06T00:48:57;29.37;;;18.70;;
11699;SDS011;5906;51.660;6.674;2024-01-06T00:51:25;31.93;;;16.90;;
11699;SDS011;5906;51.660;6.674;2024-01-06T00:53:55;30.10;;;17.43;;
11699;SDS011;5906;51.660;6.674;2024-01-06T00:56:23;29.20;;;18.93;;
11699;SDS011;5906;51.660;6.674;2024-01-06T00:58:58;30.13;;;17.80;;
11699;SDS011;5906;51.660;6.674;2024-01-06T01:01:26;29.20;;;18.60;;
11699;SDS011;5906;51.660;6.674;2024-01-06T01:03:54;29.20;;;17.67;;
11699;SDS011;5906;51.660;6.674;2024-01-06T01:06:21;28.47;;;18.47;;
11699;SDS011;5906;51.660;6.674;2024-01-06T01:08:49;29.00;;;18.00;;
11699;SDS011;5906;51.660;6.674;2024-01-06T01:11:16;30.83;;;17.83;;
11699;SDS011;5906;51.660;6.674;2024-01-06T01:13:44;28.93;;;17.10;;
11699;SDS011;5906;51.660;6.674;2024-01-06T01:16:12;29.57;;;17.73;;
11699;SDS011;5906;51.660;6.674;2024-01-06T01:18:39;31.23;;;18.50;;
11699;SDS011;5906;51.660;6.674;2024-01-06T01:21:06;26.67;;;17.20;;
11699;SDS011;5906;51.660;6.674;2024-01-06T01:23:34;25.43;;;15.87;;
11699;SDS011;5906;51.660;6.674;2024-01-06T01:26:01;23.23;;;13.90;;
11699;SDS011;5906;51.660;6.674;2024-01-06T01:28:28;21.40;;;14.50;;
11699;SDS011;5906;51.660;6.674;2024-01-06T01:30:55;24.90;;;15.13;;
11699;SDS011;5906;51.660;6.674;2024-01-06T01:33:22;23.53;;;14.10;;
11699;SDS011;5906;51.660;6.674;2024-01-06T01:35:49;21.07;;;13.27;;
11699;SDS011;5906;51.660;6.674;2024-01-06T01:38:16;28.03;;;14.73;;
11699;SDS011;5906;51.660;6.674;2024-01-06T01:40:43;19.80;;;13.40;;
11699;SDS011;5906;51.660;6.674;2024-01-06T01:43:17;24.23;;;13.17;;
11699;SDS011;5906;51.660;6.674;2024-01-06T01:45:48;22.47;;;13.43;;
11699;SDS011;5906;51.660;6.674;2024-01-06T01:48:19;21.50;;;13.40;;
11699;SDS011;5906;51.660;6.674;2024-01-06T01:50:47;23.37;;;13.43;;
11699;SDS011;5906;51.660;6.674;2024-01-06T01:53:15;17.70;;;10.80;;
11699;SDS011;5906;51.660;6.674;2024-01-06T01:55:42;15.63;;;10.30;;
11699;SDS011;5906;51.660;6.674;2024-01-06T01:58:11;15.30;;;10.20;;
11699;SDS011;5906;51.660;6.674;2024-01-06T02:00:40;17.07;;;10.50;;
11699;SDS011;5906;51.660;6.674;2024-01-06T02:03:07;16.03;;;10.03;;
11699;SDS011;5906;51.660;6.674;2024-01-06T02:05:35;16.90;;;11.57;;
11699;SDS011;5906;51.660;6.674;2024-01-06T02:08:03;15.80;;;10.53;;
11699;SDS011;5906;51.660;6.674;2024-01-06T02:10:30;15.67;;;11.13;;
11699;SDS011;5906;51.660;6.674;2024-01-06T02:12:57;17.47;;;10.40;;
11699;SDS011;5906;51.660;6.674;2024-01-06T02:15:33;16.80;;;10.40;;
11699;SDS011;5906;51.660;6.674;2024-01-06T02:18:01;16.20;;;9.30;;
11699;SDS011;5906;51.660;6.674;2024-01-06T02:20:29;14.57;;;10.20;;
11699;SDS011;5906;51.660;6.674;2024-01-06T02:22:57;15.97;;;10.30;;
11699;SDS011;5906;51.660;6.674;2024-01-06T02:25:26;17.13;;;9.73;;
11699;SDS011;5906;51.660;6.674;2024-01-06T02:27:53;14.50;;;9.37;;
11699;SDS011;5906;51.660;6.674;2024-01-06T02:30:20;15.53;;;9.80;;
11699;SDS011;5906;51.660;6.674;2024-01-06T02:32:47;23.40;;;10.30;;
11699;SDS011;5906;51.660;6.674;2024-01-06T02:35:14;22.07;;;10.33;;
11699;SDS011;5906;51.660;6.674;2024-01-06T02:37:41;14.17;;;9.40;;
11699;SDS011;5906;51.660;6.674;2024-01-06T02:40:08;23.93;;;10.33;;
11699;SDS011;5906;51.660;6.674;2024-01-06T02:42:36;17.00;;;10.80;;
11699;SDS011;5906;51.660;6.674;2024-01-06T02:45:03;15.77;;;10.23;;
11699;SDS011;5906;51.660;6.674;2024-01-06T02:47:30;15.53;;;9.80;;
11699;SDS011;5906;51.660;6.674;2024-01-06T02:49:57;15.83;;;9.87;;
11699;SDS011;5906;51.660;6.674;2024-01-06T02:52:24;13.60;;;9.33;;
11699;SDS011;5906;51.660;6.674;2024-01-06T02:54:51;15.90;;;11.30;;
11699;SDS011;5906;51.660;6.674;2024-01-06T02:57:18;16.80;;;9.47;;
11699;SDS011;5906;51.660;6.674;2024-01-06T02:59:45;15.30;;;10.00;;
11699;SDS011;5906;51.660;6.674;2024-01-06T03:02:12;15.30;;;9.20;;
11699;SDS011;5906;51.660;6.674;2024-01-06T03:04:39;17.67;;;10.63;;
11699;SDS011;5906;51.660;6.674;2024-01-06T03:07:06;16.50;;;9.40;;
11699;SDS011;5906;51.660;6.674;2024-01-06T03:09:33;15.20;;;10.30;;
11699;SDS011;5906;51.660;6.674;2024-01-06T03:11:59;16.43;;;10.40;;
11699;SDS011;5906;51.660;6.674;2024-01-06T03:14:26;18.30;;;10.17;;
11699;SDS011;5906;51.660;6.674;2024-01-06T03:16:53;17.33;;;11.07;;
11699;SDS011;5906;51.660;6.674;2024-01-06T03:19:20;14.93;;;10.00;;
11699;SDS011;5906;51.660;6.674;2024-01-06T03:21:47;16.33;;;9.60;;
11699;SDS011;5906;51.660;6.674;2024-01-06T03:24:14;14.13;;;9.97;;
11699;SDS011;5906;51.660;6.674;2024-01-06T03:26:41;13.40;;;9.17;;
11699;SDS011;5906;51.660;6.674;2024-01-06T03:29:08;12.30;;;8.57;;
11699;SDS011;5906;51.660;6.674;2024-01-06T03:31:35;14.70;;;9.70;;
11699;SDS011;5906;51.660;6.674;2024-01-06T03:34:02;15.80;;;9.83;;
11699;SDS011;5906;51.660;6.674;2024-01-06T03:36:29;21.83;;;11.93;;
11699;SDS011;5906;51.660;6.674;2024-01-06T03:38:56;16.97;;;11.30;;
11699;SDS011;5906;51.660;6.674;2024-01-06T03:41:22;16.37;;;10.07;;
11699;SDS011;5906;51.660;6.674;2024-01-06T03:43:49;14.13;;;9.93;;
11699;SDS011;5906;51.660;6.674;2024-01-06T03:46:16;16.40;;;10.30;;
11699;SDS011;5906;51.660;6.674;2024-01-06T03:48:43;17.17;;;10.90;;
11699;SDS011;5906;51.660;6.674;2024-01-06T03:51:10;13.40;;;9.60;;
11699;SDS011;5906;51.660;6.674;2024-01-06T03:53:39;15.37;;;10.80;;
11699;SDS011;5906;51.660;6.674;2024-01-06T03:56:06;17.63;;;11.50;;
11699;SDS011;5906;51.660;6.674;2024-01-06T03:58:33;17.83;;;11.17;;
11699;SDS011;5906;51.660;6.674;2024-01-06T04:01:01;15.47;;;10.47;;
11699;SDS011;5906;51.660;6.674;2024-01-06T04:03:28;19.60;;;11.83;;
11699;SDS011;5906;51.660;6.674;2024-01-06T04:05:55;17.57;;;11.30;;
11699;SDS011;5906;51.660;6.674;2024-01-06T04:08:22;18.00;;;12.07;;
11699;SDS011;5906;51.660;6.674;2024-01-06T04:10:49;19.40;;;11.07;;
11699;SDS011;5906;51.660;6.674;2024-01-06T04:13:15;17.43;;;11.47;;
11699;SDS011;5906;51.660;6.674;2024-01-06T04:15:42;19.00;;;11.77;;
11699;SDS011;5906;51.660;6.674;2024-01-06T04:18:09;16.50;;;10.77;;
11699;SDS011;5906;51.660;6.674;2024-01-06T04:20:37;20.60;;;12.50;;
11699;SDS011;5906;51.660;6.674;2024-01-06T04:23:04;20.80;;;13.13;;
11699;SDS011;5906;51.660;6.674;2024-01-06T04:25:31;22.43;;;13.33;;
11699;SDS011;5906;51.660;6.674;2024-01-06T04:27:58;18.40;;;11.80;;
11699;SDS011;5906;51.660;6.674;2024-01-06T04:30:25;17.70;;;11.47;;
11699;SDS011;5906;51.660;6.674;2024-01-06T04:32:52;20.33;;;12.20;;
11699;SDS011;5906;51.660;6.674;2024-01-06T04:35:19;18.10;;;12.30;;
11699;SDS011;5906;51.660;6.674;2024-01-06T04:37:48;22.33;;;13.67;;
11699;SDS011;5906;51.660;6.674;2024-01-06T04:40:15;19.77;;;12.43;;
11699;SDS011;5906;51.660;6.674;2024-01-06T04:42:43;24.00;;;13.63;;
11699;SDS011;5906;51.660;6.674;2024-01-06T04:45:11;22.90;;;14.37;;
11699;SDS011;5906;51.660;6.674;2024-01-06T04:47:39;21.97;;;12.60;;
11699;SDS011;5906;51.660;6.674;2024-01-06T04:50:06;20.40;;;13.27;;
11699;SDS011;5906;51.660;6.674;2024-01-06T04:52:33;18.70;;;12.70;;
11699;SDS011;5906;51.660;6.674;2024-01-06T04:55:01;22.83;;;14.00;;
11699;SDS011;5906;51.660;6.674;2024-01-06T04:57:28;23.83;;;14.37;;
11699;SDS011;5906;51.660;6.674;2024-01-06T04:59:55;23.00;;;13.80;;
11699;SDS011;5906;51.660;6.674;2024-01-06T05:02:22;20.37;;;14.30;;
11699;SDS011;5906;51.660;6.674;2024-01-06T05:04:48;24.40;;;15.60;;
11699;SDS011;5906;51.660;6.674;2024-01-06T05:07:16;26.77;;;14.87;;
11699;SDS011;5906;51.660;6.674;2024-01-06T05:09:42;21.60;;;13.60;;
11699;SDS011;5906;51.660;6.674;2024-01-06T05:12:09;21.90;;;14.00;;
11699;SDS011;5906;51.660;6.674;2024-01-06T05:14:36;23.53;;;14.40;;
11699;SDS011;5906;51.660;6.674;2024-01-06T05:17:03;21.00;;;13.77;;
11699;SDS011;5906;51.660;6.674;2024-01-06T05:19:30;23.83;;;14.00;;
11699;SDS011;5906;51.660;6.674;2024-01-06T05:21:57;30.40;;;16.00;;
11699;SDS011;5906;51.660;6.674;2024-01-06T05:24:24;23.90;;;14.87;;
11699;SDS011;5906;51.660;6.674;2024-01-06T05:26:51;23.70;;;15.33;;
11699;SDS011;5906;51.660;6.674;2024-01-06T05:29:18;23.87;;;14.90;;
11699;SDS011;5906;51.660;6.674;2024-01-06T05:31:45;22.53;;;14.50;;
11699;SDS011;5906;51.660;6.674;2024-01-06T05:34:14;22.73;;;13.60;;
11699;SDS011;5906;51.660;6.674;2024-01-06T05:36:41;22.40;;;13.70;;
11699;SDS011;5906;51.660;6.674;2024-01-06T05:39:08;25.50;;;15.60;;
11699;SDS011;5906;51.660;6.674;2024-01-06T05:41:39;24.53;;;14.50;;
11699;SDS011;5906;51.660;6.674;2024-01-06T05:44:06;25.43;;;14.80;;
11699;SDS011;5906;51.660;6.674;2024-01-06T05:46:34;21.83;;;13.73;;
11699;SDS011;5906;51.660;6.674;2024-01-06T05:49:01;21.97;;;13.83;;
11699;SDS011;5906;51.660;6.674;2024-01-06T05:51:28;24.67;;;14.57;;
11699;SDS011;5906;51.660;6.674;2024-01-06T05:53:55;23.70;;;13.97;;
11699;SDS011;5906;51.660;6.674;2024-01-06T05:56:22;23.60;;;14.03;;
11699;SDS011;5906;51.660;6.674;2024-01-06T05:58:53;26.87;;;14.30;;
11699;SDS011;5906;51.660;6.674;2024-01-06T06:01:20;24.73;;;13.63;;
11699;SDS011;5906;51.660;6.674;2024-01-06T06:03:50;18.20;;;11.63;;
11699;SDS011;5906;51.660;6.674;2024-01-06T06:06:17;19.30;;;11.30;;
11699;SDS011;5906;51.660;6.674;2024-01-06T06:08:45;18.00;;;12.10;;
11699;SDS011;5906;51.660;6.674;2024-01-06T06:11:12;19.83;;;12.57;;
11699;SDS011;5906;51.660;6.674;2024-01-06T06:13:42;20.07;;;12.40;;
11699;SDS011;5906;51.660;6.674;2024-01-06T06:16:09;21.80;;;12.47;;
11699;SDS011;5906;51.660;6.674;2024-01-06T06:18:38;21.93;;;13.20;;
11699;SDS011;5906;51.660;6.674;2024-01-06T06:21:06;24.47;;;12.83;;
11699;SDS011;5906;51.660;6.674;2024-01-06T06:23:34;21.23;;;12.23;;
11699;SDS011;5906;51.660;6.674;2024-01-06T06:26:05;24.33;;;13.30;;
11699;SDS011;5906;51.660;6.674;2024-01-06T06:28:33;27.40;;;13.40;;
11699;SDS011;5906;51.660;6.674;2024-01-06T06:31:01;26.07;;;14.10;;
11699;SDS011;5906;51.660;6.674;2024-01-06T06:33:28;24.00;;;14.00;;
11699;SDS011;5906;51.660;6.674;2024-01-06T06:35:56;29.10;;;14.57;;
11699;SDS011;5906;51.660;6.674;2024-01-06T06:38:23;30.13;;;14.33;;
11699;SDS011;5906;51.660;6.674;2024-01-06T06:40:52;29.70;;;15.80;;
11699;SDS011;5906;51.660;6.674;2024-01-06T06:43:19;31.93;;;15.73;;
11699;SDS011;5906;51.660;6.674;2024-01-06T06:45:46;30.23;;;16.10;;
11699;SDS011;5906;51.660;6.674;2024-01-06T06:48:13;28.37;;;15.60;;
11699;SDS011;5906;51.660;6.674;2024-01-06T06:50:40;26.40;;;15.63;;
11699;SDS011;5906;51.660;6.674;2024-01-06T06:53:08;26.53;;;15.10;;
11699;SDS011;5906;51.660;6.674;2024-01-06T06:55:35;25.57;;;13.60;;
11699;SDS011;5906;51.660;6.674;2024-01-06T06:58:04;28.63;;;16.07;;
11699;SDS011;5906;51.660;6.674;2024-01-06T07:00:32;29.33;;;16.87;;
11699;SDS011;5906;51.660;6.674;2024-01-06T07:02:59;26.63;;;14.30;;
11699;SDS011;5906;51.660;6.674;2024-01-06T07:05:26;30.97;;;15.80;;
11699;SDS011;5906;51.660;6.674;2024-01-06T07:07:53;24.77;;;14.30;;
11699;SDS011;5906;51.660;6.674;2024-01-06T07:10:21;25.73;;;15.13;;
11699;SDS011;5906;51.660;6.674;2024-01-06T07:12:49;26.47;;;15.07;;
11699;SDS011;5906;51.660;6.674;2024-01-06T07:15:16;25.80;;;13.87;;
11699;SDS011;5906;51.660;6.674;2024-01-06T07:17:43;25.77;;;13.60;;
11699;SDS011;5906;51.660;6.674;2024-01-06T07:20:10;24.53;;;14.10;;
11699;SDS011;5906;51.660;6.674;2024-01-06T07:22:37;27.43;;;13.87;;
11699;SDS011;5906;51.660;6.674;2024-01-06T07:25:04;25.77;;;13.43;;
11699;SDS011;5906;51.660;6.674;2024-01-06T07:27:32;26.50;;;14.37;;
11699;SDS011;5906;51.660;6.674;2024-01-06T07:29:59;24.90;;;14.63;;
11699;SDS011;5906;51.660;6.674;2024-01-06T07:32:26;22.40;;;12.80;;
11699;SDS011;5906;51.660;6.674;2024-01-06T07:34:53;23.33;;;13.60;;
11699;SDS011;5906;51.660;6.674;2024-01-06T07:37:20;26.07;;;13.53;;
11699;SDS011;5906;51.660;6.674;2024-01-06T07:39:46;23.47;;;14.57;;
11699;SDS011;5906;51.660;6.674;2024-01-06T07:42:13;22.70;;;12.83;;
11699;SDS011;5906;51.660;6.674;2024-01-06T07:44:40;24.90;;;13.97;;
11699;SDS011;5906;51.660;6.674;2024-01-06T07:47:07;26.20;;;13.80;;
11699;SDS011;5906;51.660;6.674;2024-01-06T07:49:34;22.53;;;14.70;;
11699;SDS011;5906;51.660;6.674;2024-01-06T07:52:01;24.90;;;13.17;;
11699;SDS011;5906;51.660;6.674;2024-01-06T07:54:28;29.50;;;15.00;;
11699;SDS011;5906;51.660;6.674;2024-01-06T07:56:56;22.90;;;13.30;;
11699;SDS011;5906;51.660;6.674;2024-01-06T07:59:23;24.80;;;12.87;;
11699;SDS011;5906;51.660;6.674;2024-01-06T08:01:50;22.33;;;13.40;;
11699;SDS011;5906;51.660;6.674;2024-01-06T08:04:17;33.00;;;16.20;;
11699;SDS011;5906;51.660;6.674;2024-01-06T08:06:44;26.47;;;15.47;;
11699;SDS011;5906;51.660;6.674;2024-01-06T08:09:11;27.20;;;14.87;;
11699;SDS011;5906;51.660;6.674;2024-01-06T08:11:38;24.80;;;15.27;;
11699;SDS011;5906;51.660;6.674;2024-01-06T08:14:05;26.83;;;14.90;;
11699;SDS011;5906;51.660;6.674;2024-01-06T08:16:32;29.67;;;15.37;;
11699;SDS011;5906;51.660;6.674;2024-01-06T08:18:59;24.87;;;15.00;;
11699;SDS011;5906;51.660;6.674;2024-01-06T08:21:26;27.97;;;16.37;;
11699;SDS011;5906;51.660;6.674;2024-01-06T08:23:54;28.90;;;16.17;;
11699;SDS011;5906;51.660;6.674;2024-01-06T08:26:21;42.43;;;18.67;;
11699;SDS011;5906;51.660;6.674;2024-01-06T08:28:48;32.87;;;15.87;;
11699;SDS011;5906;51.660;6.674;2024-01-06T08:31:15;29.57;;;16.53;;
11699;SDS011;5906;51.660;6.674;2024-01-06T08:33:42;33.17;;;16.37;;
11699;SDS011;5906;51.660;6.674;2024-01-06T08:36:09;35.93;;;16.10;;
11699;SDS011;5906;51.660;6.674;2024-01-06T08:38:36;37.03;;;18.27;;
11699;SDS011;5906;51.660;6.674;2024-01-06T08:41:02;33.70;;;17.63;;
11699;SDS011;5906;51.660;6.674;2024-01-06T08:43:29;37.63;;;17.40;;
11699;SDS011;5906;51.660;6.674;2024-01-06T08:45:56;35.87;;;16.93;;
11699;SDS011;5906;51.660;6.674;2024-01-06T08:48:23;34.40;;;17.20;;
11699;SDS011;5906;51.660;6.674;2024-01-06T08:50:51;42.00;;;20.37;;
11699;SDS011;5906;51.660;6.674;2024-01-06T08:53:17;39.00;;;18.73;;
11699;SDS011;5906;51.660;6.674;2024-01-06T08:55:44;41.37;;;18.83;;
11699;SDS011;5906;51.660;6.674;2024-01-06T08:58:12;40.77;;;19.43;;
11699;SDS011;5906;51.660;6.674;2024-01-06T09:00:39;37.20;;;18.47;;
11699;SDS011;5906;51.660;6.674;2024-01-06T09:03:06;40.67;;;19.83;;
11699;SDS011;5906;51.660;6.674;2024-01-06T09:05:34;39.57;;;18.53;;
11699;SDS011;5906;51.660;6.674;2024-01-06T09:08:01;34.73;;;18.40;;
11699;SDS011;5906;51.660;6.674;2024-01-06T09:10:29;41.47;;;20.83;;
11699;SDS011;5906;51.660;6.674;2024-01-06T09:12:56;43.83;;;20.33;;
11699;SDS011;5906;51.660;6.674;2024-01-06T09:15:24;34.77;;;17.63;;
11699;SDS011;5906;51.660;6.674;2024-01-06T09:17:51;37.43;;;18.37;;
11699;SDS011;5906;51.660;6.674;2024-01-06T09:20:18;40.10;;;17.83;;
11699;SDS011;5906;51.660;6.674;2024-01-06T09:22:49;40.53;;;20.43;;
11699;SDS011;5906;51.660;6.674;2024-01-06T09:25:16;37.40;;;18.37;;
11699;SDS011;5906;51.660;6.674;2024-01-06T09:27:43;42.27;;;19.30;;
11699;SDS011;5906;51.660;6.674;2024-01-06T09:30:10;42.77;;;22.50;;
11699;SDS011;5906;51.660;6.674;2024-01-06T09:32:37;44.63;;;24.20;;
11699;SDS011;5906;51.660;6.674;2024-01-06T09:35:04;48.30;;;23.27;;
11699;SDS011;5906;51.660;6.674;2024-01-06T09:37:32;37.80;;;20.70;;
11699;SDS011;5906;51.660;6.674;2024-01-06T09:39:58;39.87;;;20.70;;
11699;SDS011;5906;51.660;6.674;2024-01-06T09:42:26;39.50;;;21.20;;
11699;SDS011;5906;51.660;6.674;2024-01-06T09:44:53;35.90;;;18.83;;
11699;SDS011;5906;51.660;6.674;2024-01-06T09:47:21;38.07;;;19.60;;
11699;SDS011;5906;51.660;6.674;2024-01-06T09:49:49;36.47;;;18.43;;
11699;SDS011;5906;51.660;6.674;2024-01-06T09:52:19;31.73;;;16.80;;
11699;SDS011;5906;51.660;6.674;2024-01-06T09:54:52;28.43;;;15.47;;
11699;SDS011;5906;51.660;6.674;2024-01-06T09:57:22;31.37;;;16.20;;
11699;SDS011;5906;51.660;6.674;2024-01-06T09:59:49;33.50;;;17.77;;
11699;SDS011;5906;51.660;6.674;2024-01-06T10:02:17;34.40;;;17.97;;
11699;SDS011;5906;51.660;6.674;2024-01-06T10:04:46;35.97;;;17.90;;
11699;SDS011;5906;51.660;6.674;2024-01-06T10:07:13;36.60;;;16.53;;
11699;SDS011;5906;51.660;6.674;2024-01-06T10:09:40;34.87;;;17.80;;
11699;SDS011;5906;51.660;6.674;2024-01-06T10:12:10;32.63;;;17.40;;
11699;SDS011;5906;51.660;6.674;2024-01-06T10:14:37;33.30;;;15.97;;
11699;SDS011;5906;51.660;6.674;2024-01-06T10:17:06;37.37;;;18.77;;
11699;SDS011;5906;51.660;6.674;2024-01-06T10:19:36;31.10;;;15.60;;
11699;SDS011;5906;51.660;6.674;2024-01-06T10:22:05;36.77;;;16.13;;
11699;SDS011;5906;51.660;6.674;2024-01-06T10:24:31;29.50;;;16.07;;
11699;SDS011;5906;51.660;6.674;2024-01-06T10:26:58;29.10;;;16.47;;
11699;SDS011;5906;51.660;6.674;2024-01-06T10:29:25;27.17;;;14.40;;
11699;SDS011;5906;51.660;6.674;2024-01-06T10:31:55;31.07;;;15.03;;
11699;SDS011;5906;51.660;6.674;2024-01-06T10:34:45;26.63;;;15.50;;
11699;SDS011;5906;51.660;6.674;2024-01-06T10:37:41;30.60;;;15.90;;
11699;SDS011;5906;51.660;6.674;2024-01-06T10:40:10;38.00;;;18.70;;
11699;SDS011;5906;51.660;6.674;2024-01-06T10:42:40;31.50;;;16.47;;
11699;SDS011;5906;51.660;6.674;2024-01-06T10:45:09;28.43;;;15.57;;
11699;SDS011;5906;51.660;6.674;2024-01-06T10:47:38;25.40;;;15.10;;
11699;SDS011;5906;51.660;6.674;2024-01-06T10:50:08;30.03;;;16.40;;
11699;SDS011;5906;51.660;6.674;2024-01-06T10:52:37;30.83;;;16.97;;
11699;SDS011;5906;51.660;6.674;2024-01-06T10:55:07;33.17;;;16.90;;
11699;SDS011;5906;51.660;6.674;2024-01-06T10:57:34;34.23;;;19.33;;
11699;SDS011;5906;51.660;6.674;2024-01-06T11:00:44;36.23;;;18.70;;
11699;SDS011;5906;51.660;6.674;2024-01-06T11:03:42;26.70;;;16.03;;
11699;SDS011;5906;51.660;6.674;2024-01-06T11:06:20;31.10;;;16.07;;
11699;SDS011;5906;51.660;6.674;2024-01-06T11:09:11;35.40;;;16.90;;
11699;SDS011;5906;51.660;6.674;2024-01-06T11:12:00;33.63;;;17.30;;
11699;SDS011;5906;51.660;6.674;2024-01-06T11:14:44;36.50;;;19.27;;
11699;SDS011;5906;51.660;6.674;2024-01-06T11:24:22;30.23;;;17.03;;
11699;SDS011;5906;51.660;6.674;2024-01-06T11:27:01;32.63;;;18.23;;
11699;SDS011;5906;51.660;6.674;2024-01-06T11:29:28;29.77;;;17.07;;
11699;SDS011;5906;51.660;6.674;2024-01-06T11:34:50;29.90;;;14.80;;
11699;SDS011;5906;51.660;6.674;2024-01-06T11:37:23;30.40;;;16.63;;
11699;SDS011;5906;51.660;6.674;2024-01-06T11:39:51;28.20;;;14.90;;
11699;SDS011;5906;51.660;6.674;2024-01-06T11:42:19;25.73;;;16.57;;
11699;SDS011;5906;51.660;6.674;2024-01-06T11:44:50;28.73;;;15.73;;
11699;SDS011;5906;51.660;6.674;2024-01-06T11:47:17;32.77;;;14.63;;
11699;SDS011;5906;51.660;6.674;2024-01-06T11:49:52;24.90;;;13.90;;
11699;SDS011;5906;51.660;6.674;2024-01-06T11:52:20;22.27;;;13.80;;
11699;SDS011;5906;51.660;6.674;2024-01-06T11:54:48;27.87;;;15.20;;
11699;SDS011;5906;51.660;6.674;2024-01-06T11:57:16;25.20;;;14.67;;
11699;SDS011;5906;51.660;6.674;2024-01-06T11:59:44;25.90;;;13.70;;
11699;SDS011;5906;51.660;6.674;2024-01-06T12:02:11;26.00;;;13.33;;
11699;SDS011;5906;51.660;6.674;2024-01-06T12:04:40;24.27;;;14.57;;
11699;SDS011;5906;51.660;6.674;2024-01-06T12:07:08;24.67;;;13.10;;
11699;SDS011;5906;51.660;6.674;2024-01-06T12:09:35;25.27;;;14.83;;
11699;SDS011;5906;51.660;6.674;2024-01-06T12:12:03;20.97;;;12.77;;
11699;SDS011;5906;51.660;6.674;2024-01-06T12:14:33;25.07;;;13.90;;
11699;SDS011;5906;51.660;6.674;2024-01-06T12:17:00;27.87;;;15.23;;
11699;SDS011;5906;51.660;6.674;2024-01-06T12:19:30;31.50;;;15.70;;
11699;SDS011;5906;51.660;6.674;2024-01-06T12:22:03;34.40;;;17.30;;
11699;SDS011;5906;51.660;6.674;2024-01-06T12:24:32;25.10;;;13.93;;
11699;SDS011;5906;51.660;6.674;2024-01-06T12:26:59;23.37;;;14.23;;
11699;SDS011;5906;51.660;6.674;2024-01-06T12:29:26;23.87;;;13.70;;
11699;SDS011;5906;51.660;6.674;2024-01-06T12:31:59;24.70;;;14.07;;
11699;SDS011;5906;51.660;6.674;2024-01-06T12:34:26;26.20;;;14.90;;
11699;SDS011;5906;51.660;6.674;2024-01-06T12:36:54;23.20;;;13.87;;
11699;SDS011;5906;51.660;6.674;2024-01-06T12:39:27;22.67;;;13.80;;
11699;SDS011;5906;51.660;6.674;2024-01-06T12:41:55;29.97;;;16.07;;
11699;SDS011;5906;51.660;6.674;2024-01-06T12:44:22;36.10;;;17.90;;
11699;SDS011;5906;51.660;6.674;2024-01-06T12:46:49;32.20;;;16.33;;
11699;SDS011;5906;51.660;6.674;2024-01-06T12:49:16;29.90;;;17.30;;
11699;SDS011;5906;51.660;6.674;2024-01-06T12:51:44;33.10;;;17.90;;
11699;SDS011;5906;51.660;6.674;2024-01-06T12:54:10;31.40;;;16.13;;
11699;SDS011;5906;51.660;6.674;2024-01-06T12:56:37;32.07;;;17.27;;
11699;SDS011;5906;51.660;6.674;2024-01-06T12:59:04;33.50;;;17.07;;
11699;SDS011;5906;51.660;6.674;2024-01-06T13:01:32;29.20;;;18.00;;
11699;SDS011;5906;51.660;6.674;2024-01-06T13:03:59;34.17;;;19.60;;
11699;SDS011;5906;51.660;6.674;2024-01-06T13:06:27;32.13;;;16.10;;
11699;SDS011;5906;51.660;6.674;2024-01-06T13:08:54;32.13;;;17.67;;
11699;SDS011;5906;51.660;6.674;2024-01-06T13:11:21;29.20;;;16.00;;
11699;SDS011;5906;51.660;6.674;2024-01-06T13:13:48;27.50;;;16.33;;
11699;SDS011;5906;51.660;6.674;2024-01-06T13:16:15;27.80;;;15.47;;
11699;SDS011;5906;51.660;6.674;2024-01-06T13:18:43;34.20;;;16.40;;
11699;SDS011;5906;51.660;6.674;2024-01-06T13:21:10;30.77;;;16.80;;
11699;SDS011;5906;51.660;6.674;2024-01-06T13:23:38;34.53;;;18.83;;
11699;SDS011;5906;51.660;6.674;2024-01-06T13:26:05;34.67;;;18.07;;
11699;SDS011;5906;51.660;6.674;2024-01-06T13:28:32;31.70;;;17.53;;
11699;SDS011;5906;51.660;6.674;2024-01-06T13:30:59;33.00;;;17.67;;
11699;SDS011;5906;51.660;6.674;2024-01-06T13:33:27;28.97;;;17.27;;
11699;SDS011;5906;51.660;6.674;2024-01-06T13:35:55;30.50;;;17.80;;
11699;SDS011;5906;51.660;6.674;2024-01-06T13:38:22;30.17;;;16.63;;
11699;SDS011;5906;51.660;6.674;2024-01-06T13:40:49;31.93;;;18.37;;
11699;SDS011;5906;51.660;6.674;2024-01-06T13:43:16;31.53;;;17.50;;
11699;SDS011;5906;51.660;6.674;2024-01-06T13:45:43;35.47;;;18.20;;
11699;SDS011;5906;51.660;6.674;2024-01-06T13:48:13;31.63;;;18.80;;
11699;SDS011;5906;51.660;6.674;2024-01-06T13:50:41;31.63;;;18.73;;
11699;SDS011;5906;51.660;6.674;2024-01-06T13:53:07;32.83;;;16.70;;
11699;SDS011;5906;51.660;6.674;2024-01-06T13:55:35;33.13;;;18.90;;
11699;SDS011;5906;51.660;6.674;2024-01-06T13:58:01;29.27;;;18.37;;
11699;SDS011;5906;51.660;6.674;2024-01-06T14:00:29;33.93;;;18.93;;
11699;SDS011;5906;51.660;6.674;2024-01-06T14:02:56;36.37;;;17.87;;
11699;SDS011;5906;51.660;6.674;2024-01-06T14:05:23;30.57;;;18.37;;
11699;SDS011;5906;51.660;6.674;2024-01-06T14:07:51;31.73;;;17.07;;
11699;SDS011;5906;51.660;6.674;2024-01-06T14:10:18;30.03;;;15.90;;
11699;SDS011;5906;51.660;6.674;2024-01-06T14:12:46;29.17;;;17.70;;
11699;SDS011;5906;51.660;6.674;2024-01-06T14:15:13;29.70;;;16.17;;
11699;SDS011;5906;51.660;6.674;2024-01-06T14:17:41;26.70;;;17.20;;
11699;SDS011;5906;51.660;6.674;2024-01-06T14:20:10;27.47;;;16.83;;
11699;SDS011;5906;51.660;6.674;2024-01-06T14:22:39;30.03;;;17.67;;
11699;SDS011;5906;51.660;6.674;2024-01-06T14:25:06;25.93;;;15.70;;
11699;SDS011;5906;51.660;6.674;2024-01-06T14:27:34;29.63;;;17.77;;
11699;SDS011;5906;51.660;6.674;2024-01-06T14:30:01;28.43;;;18.67;;
11699;SDS011;5906;51.660;6.674;2024-01-06T14:32:28;27.13;;;17.33;;
11699;SDS011;5906;51.660;6.674;2024-01-06T14:34:56;27.20;;;16.33;;
11699;SDS011;5906;51.660;6.674;2024-01-06T14:37:23;28.37;;;17.20;;
11699;SDS011;5906;51.660;6.674;2024-01-06T14:39:51;27.40;;;17.63;;
11699;SDS011;5906;51.660;6.674;2024-01-06T14:42:18;29.63;;;18.10;;
11699;SDS011;5906;51.660;6.674;2024-01-06T14:44:45;27.40;;;17.00;;
11699;SDS011;5906;51.660;6.674;2024-01-06T14:47:12;29.73;;;17.97;;
11699;SDS011;5906;51.660;6.674;2024-01-06T14:49:44;30.80;;;17.53;;
11699;SDS011;5906;51.660;6.674;2024-01-06T14:52:14;34.03;;;18.27;;